sensor_id;sensor_type;location;lat;lon;timestamp;P1;durP1;ratioP1;P2;durP2;ratioP2
9256;SDS011;4665;51.368;6.782;2024-02-21T00:00:46;12.40;;;6.80;;
9256;SDS011;4665;51.368;6.782;2024-02-21T00:03:11;8.73;;;6.43;;
9256;SDS011;4665;51.368;6.782;2024-02-21T00:05:36;15.93;;;7.40;;
9256;SDS011;4665;51.368;6.782;2024-02-21T00:10:46;13.20;;;7.63;;
9256;SDS011;4665;51.368;6.782;2024-02-21T00:16:00;11.63;;;7.03;;
9256;SDS011;4665;51.368;6.782;2024-02-21T00:18:37;12.97;;;7.27;;
9256;SDS011;4665;51.368;6.782;2024-02-21T00:21:03;10.63;;;6.30;;
9256;SDS011;4665;51.368;6.782;2024-02-21T00:26:16;11.93;;;6.73;;
9256;SDS011;4665;51.368;6.782;2024-02-21T00:28:55;13.83;;;7.37;;
9256;SDS011;4665;51.368;6.782;2024-02-21T00:31:20;14.17;;;7.40;;
9256;SDS011;4665;51.368;6.782;2024-02-21T00:33:52;11.83;;;7.27;;
9256;SDS011;4665;51.368;6.782;2024-02-21T00:36:17;12.00;;;7.83;;
9256;SDS011;4665;51.368;6.782;2024-02-21T00:38:59;15.83;;;7.90;;
9256;SDS011;4665;51.368;6.782;2024-02-21T00:41:24;16.87;;;7.70;;
9256;SDS011;4665;51.368;6.782;2024-02-21T00:49:27;13.60;;;6.77;;
9256;SDS011;4665;51.368;6.782;2024-02-21T00:51:52;12.80;;;7.37;;
9256;SDS011;4665;51.368;6.782;2024-02-21T00:57:01;12.10;;;6.73;;
9256;SDS011;4665;51.368;6.782;2024-02-21T00:59:34;15.93;;;6.97;;
9256;SDS011;4665;51.368;6.782;2024-02-21T01:01:59;10.73;;;6.23;;
9256;SDS011;4665;51.368;6.782;2024-02-21T01:04:26;9.93;;;6.67;;
9256;SDS011;4665;51.368;6.782;2024-02-21T01:06:52;12.73;;;6.97;;
9256;SDS011;4665;51.368;6.782;2024-02-21T01:09:21;15.03;;;6.83;;
9256;SDS011;4665;51.368;6.782;2024-02-21T01:11:46;16.60;;;7.40;;
9256;SDS011;4665;51.368;6.782;2024-02-21T01:14:23;11.70;;;6.73;;
9256;SDS011;4665;51.368;6.782;2024-02-21T01:16:48;13.23;;;7.27;;
9256;SDS011;4665;51.368;6.782;2024-02-21T01:22:09;13.30;;;6.60;;
9256;SDS011;4665;51.368;6.782;2024-02-21T01:24:34;13.70;;;6.57;;
9256;SDS011;4665;51.368;6.782;2024-02-21T01:27:00;12.33;;;7.03;;
9256;SDS011;4665;51.368;6.782;2024-02-21T01:32:27;13.17;;;6.73;;
9256;SDS011;4665;51.368;6.782;2024-02-21T01:34:59;8.53;;;6.10;;
9256;SDS011;4665;51.368;6.782;2024-02-21T01:37:24;10.30;;;6.30;;
9256;SDS011;4665;51.368;6.782;2024-02-21T01:39:52;14.03;;;7.07;;
9256;SDS011;4665;51.368;6.782;2024-02-21T01:42:18;13.73;;;6.93;;
9256;SDS011;4665;51.368;6.782;2024-02-21T01:47:32;9.30;;;6.07;;
9256;SDS011;4665;51.368;6.782;2024-02-21T01:49:58;13.20;;;6.53;;
9256;SDS011;4665;51.368;6.782;2024-02-21T01:52:30;10.60;;;6.40;;
9256;SDS011;4665;51.368;6.782;2024-02-21T01:54:57;11.50;;;6.30;;
9256;SDS011;4665;51.368;6.782;2024-02-21T01:57:35;10.30;;;6.33;;
9256;SDS011;4665;51.368;6.782;2024-02-21T02:00:00;14.63;;;6.87;;
9256;SDS011;4665;51.368;6.782;2024-02-21T02:05:44;10.53;;;6.23;;
9256;SDS011;4665;51.368;6.782;2024-02-21T02:08:11;11.93;;;6.00;;
9256;SDS011;4665;51.368;6.782;2024-02-21T02:10:42;10.53;;;6.00;;
9256;SDS011;4665;51.368;6.782;2024-02-21T02:13:08;9.20;;;6.60;;
9256;SDS011;4665;51.368;6.782;2024-02-21T02:18:22;13.10;;;6.10;;
9256;SDS011;4665;51.368;6.782;2024-02-21T02:20:48;14.30;;;7.27;;
9256;SDS011;4665;51.368;6.782;2024-02-21T02:23:26;15.83;;;7.17;;
9256;SDS011;4665;51.368;6.782;2024-02-21T02:25:54;11.43;;;6.13;;
9256;SDS011;4665;51.368;6.782;2024-02-21T02:28:19;10.60;;;6.10;;
9256;SDS011;4665;51.368;6.782;2024-02-21T02:30:54;13.07;;;6.50;;
9256;SDS011;4665;51.368;6.782;2024-02-21T02:33:19;10.47;;;5.20;;
9256;SDS011;4665;51.368;6.782;2024-02-21T02:35:54;12.80;;;6.17;;
9256;SDS011;4665;51.368;6.782;2024-02-21T02:38:19;10.47;;;5.70;;
9256;SDS011;4665;51.368;6.782;2024-02-21T02:40:54;8.13;;;5.70;;
9256;SDS011;4665;51.368;6.782;2024-02-21T02:43:20;11.67;;;6.03;;
9256;SDS011;4665;51.368;6.782;2024-02-21T02:45:48;9.00;;;5.27;;
9256;SDS011;4665;51.368;6.782;2024-02-21T02:51:06;13.87;;;5.97;;
9256;SDS011;4665;51.368;6.782;2024-02-21T02:56:15;10.10;;;5.80;;
9256;SDS011;4665;51.368;6.782;2024-02-21T03:01:34;11.40;;;5.97;;
9256;SDS011;4665;51.368;6.782;2024-02-21T03:04:09;10.50;;;6.60;;
9256;SDS011;4665;51.368;6.782;2024-02-21T03:06:34;12.47;;;6.07;;
9256;SDS011;4665;51.368;6.782;2024-02-21T03:11:56;9.77;;;5.87;;
9256;SDS011;4665;51.368;6.782;2024-02-21T03:17:24;9.17;;;5.43;;
9256;SDS011;4665;51.368;6.782;2024-02-21T03:22:37;10.60;;;6.63;;
9256;SDS011;4665;51.368;6.782;2024-02-21T03:27:48;11.97;;;6.03;;
9256;SDS011;4665;51.368;6.782;2024-02-21T03:30:27;13.30;;;5.77;;
9256;SDS011;4665;51.368;6.782;2024-02-21T03:32:52;11.83;;;6.20;;
9256;SDS011;4665;51.368;6.782;2024-02-21T03:38:37;10.47;;;6.00;;
9256;SDS011;4665;51.368;6.782;2024-02-21T03:41:02;7.83;;;5.30;;
9256;SDS011;4665;51.368;6.782;2024-02-21T03:43:27;13.37;;;6.40;;
9256;SDS011;4665;51.368;6.782;2024-02-21T03:48:29;12.20;;;6.20;;
9256;SDS011;4665;51.368;6.782;2024-02-21T03:53:50;9.90;;;5.83;;
9256;SDS011;4665;51.368;6.782;2024-02-21T03:56:15;10.57;;;5.73;;
9256;SDS011;4665;51.368;6.782;2024-02-21T03:58:49;10.27;;;5.67;;
9256;SDS011;4665;51.368;6.782;2024-02-21T04:01:15;10.90;;;5.63;;
9256;SDS011;4665;51.368;6.782;2024-02-21T04:03:40;9.83;;;5.27;;
9256;SDS011;4665;51.368;6.782;2024-02-21T04:09:02;8.40;;;5.30;;
9256;SDS011;4665;51.368;6.782;2024-02-21T04:11:32;8.27;;;5.30;;
9256;SDS011;4665;51.368;6.782;2024-02-21T04:13:58;12.20;;;5.63;;
9256;SDS011;4665;51.368;6.782;2024-02-21T04:16:41;11.73;;;5.87;;
9256;SDS011;4665;51.368;6.782;2024-02-21T04:19:06;9.57;;;5.73;;
9256;SDS011;4665;51.368;6.782;2024-02-21T04:21:31;8.97;;;5.80;;
9256;SDS011;4665;51.368;6.782;2024-02-21T04:26:50;14.07;;;5.87;;
9256;SDS011;4665;51.368;6.782;2024-02-21T04:35:24;7.20;;;4.73;;
9256;SDS011;4665;51.368;6.782;2024-02-21T04:37:49;6.87;;;4.73;;
9256;SDS011;4665;51.368;6.782;2024-02-21T04:40:29;8.83;;;4.93;;
9256;SDS011;4665;51.368;6.782;2024-02-21T04:42:54;10.23;;;5.03;;
9256;SDS011;4665;51.368;6.782;2024-02-21T04:45:19;7.10;;;5.13;;
9256;SDS011;4665;51.368;6.782;2024-02-21T04:50:44;8.43;;;5.03;;
9256;SDS011;4665;51.368;6.782;2024-02-21T04:53:14;11.63;;;4.87;;
9256;SDS011;4665;51.368;6.782;2024-02-21T04:55:41;11.10;;;4.97;;
9256;SDS011;4665;51.368;6.782;2024-02-21T04:58:06;7.60;;;4.57;;
9256;SDS011;4665;51.368;6.782;2024-02-21T05:03:22;10.07;;;4.77;;
9256;SDS011;4665;51.368;6.782;2024-02-21T05:05:47;8.13;;;4.70;;
9256;SDS011;4665;51.368;6.782;2024-02-21T05:11:06;8.43;;;4.30;;
9256;SDS011;4665;51.368;6.782;2024-02-21T05:13:37;11.27;;;4.80;;
9256;SDS011;4665;51.368;6.782;2024-02-21T05:16:02;9.27;;;4.77;;
9256;SDS011;4665;51.368;6.782;2024-02-21T05:18:30;6.40;;;4.30;;
9256;SDS011;4665;51.368;6.782;2024-02-21T05:20:55;10.93;;;4.80;;
9256;SDS011;4665;51.368;6.782;2024-02-21T05:28:59;10.33;;;4.23;;
9256;SDS011;4665;51.368;6.782;2024-02-21T05:34:21;5.83;;;4.00;;
9256;SDS011;4665;51.368;6.782;2024-02-21T05:36:46;7.77;;;4.63;;
9256;SDS011;4665;51.368;6.782;2024-02-21T05:39:15;5.90;;;4.27;;
9256;SDS011;4665;51.368;6.782;2024-02-21T05:44:46;8.37;;;4.57;;
9256;SDS011;4665;51.368;6.782;2024-02-21T05:50:14;10.83;;;4.17;;
9256;SDS011;4665;51.368;6.782;2024-02-21T05:55:36;8.77;;;4.23;;
9256;SDS011;4665;51.368;6.782;2024-02-21T05:58:14;10.50;;;4.23;;
9256;SDS011;4665;51.368;6.782;2024-02-21T06:00:39;9.43;;;4.10;;
9256;SDS011;4665;51.368;6.782;2024-02-21T06:03:05;7.57;;;3.77;;
9256;SDS011;4665;51.368;6.782;2024-02-21T06:05:30;8.43;;;4.80;;
9256;SDS011;4665;51.368;6.782;2024-02-21T06:07:57;6.37;;;3.73;;
9256;SDS011;4665;51.368;6.782;2024-02-21T06:10:23;5.87;;;4.00;;
9256;SDS011;4665;51.368;6.782;2024-02-21T06:12:53;8.87;;;4.87;;
9256;SDS011;4665;51.368;6.782;2024-02-21T06:15:19;8.10;;;3.87;;
9256;SDS011;4665;51.368;6.782;2024-02-21T06:17:55;8.07;;;4.00;;
9256;SDS011;4665;51.368;6.782;2024-02-21T06:20:20;10.00;;;4.60;;
9256;SDS011;4665;51.368;6.782;2024-02-21T06:25:49;10.90;;;4.63;;
9256;SDS011;4665;51.368;6.782;2024-02-21T06:31:12;5.47;;;4.07;;
9256;SDS011;4665;51.368;6.782;2024-02-21T06:33:56;6.30;;;4.30;;
9256;SDS011;4665;51.368;6.782;2024-02-21T06:36:21;7.03;;;4.00;;
9256;SDS011;4665;51.368;6.782;2024-02-21T06:38:46;6.80;;;3.87;;
9256;SDS011;4665;51.368;6.782;2024-02-21T06:41:28;7.60;;;4.27;;
9256;SDS011;4665;51.368;6.782;2024-02-21T06:43:55;6.40;;;4.23;;
9256;SDS011;4665;51.368;6.782;2024-02-21T06:46:31;8.27;;;4.03;;
9256;SDS011;4665;51.368;6.782;2024-02-21T06:48:59;6.80;;;3.97;;
9256;SDS011;4665;51.368;6.782;2024-02-21T06:51:26;4.20;;;3.73;;
9256;SDS011;4665;51.368;6.782;2024-02-21T06:53:52;5.10;;;3.53;;
9256;SDS011;4665;51.368;6.782;2024-02-21T06:56:17;10.20;;;4.17;;
9256;SDS011;4665;51.368;6.782;2024-02-21T06:58:43;7.57;;;4.07;;
9256;SDS011;4665;51.368;6.782;2024-02-21T07:01:15;7.63;;;3.57;;
9256;SDS011;4665;51.368;6.782;2024-02-21T07:03:43;5.40;;;3.97;;
9256;SDS011;4665;51.368;6.782;2024-02-21T07:06:08;8.40;;;4.03;;
9256;SDS011;4665;51.368;6.782;2024-02-21T07:11:36;7.63;;;3.83;;
9256;SDS011;4665;51.368;6.782;2024-02-21T07:17:03;4.83;;;3.43;;
9256;SDS011;4665;51.368;6.782;2024-02-21T07:22:00;5.37;;;3.10;;
9256;SDS011;4665;51.368;6.782;2024-02-21T07:27:18;8.77;;;3.70;;
9256;SDS011;4665;51.368;6.782;2024-02-21T07:29:43;4.47;;;3.60;;
9256;SDS011;4665;51.368;6.782;2024-02-21T07:32:21;5.10;;;3.50;;
9256;SDS011;4665;51.368;6.782;2024-02-21T07:34:47;7.03;;;3.83;;
9256;SDS011;4665;51.368;6.782;2024-02-21T07:39:56;6.20;;;3.60;;
9256;SDS011;4665;51.368;6.782;2024-02-21T07:42:30;4.40;;;3.30;;
9256;SDS011;4665;51.368;6.782;2024-02-21T07:44:55;5.20;;;3.50;;
9256;SDS011;4665;51.368;6.782;2024-02-21T07:47:22;4.27;;;3.37;;
9256;SDS011;4665;51.368;6.782;2024-02-21T07:49:47;5.47;;;3.27;;
9256;SDS011;4665;51.368;6.782;2024-02-21T07:52:24;3.93;;;3.23;;
9256;SDS011;4665;51.368;6.782;2024-02-21T07:54:50;6.33;;;3.27;;
9256;SDS011;4665;51.368;6.782;2024-02-21T07:57:16;6.67;;;3.33;;
9256;SDS011;4665;51.368;6.782;2024-02-21T07:59:41;5.57;;;3.20;;
9256;SDS011;4665;51.368;6.782;2024-02-21T08:05:12;8.60;;;4.00;;
9256;SDS011;4665;51.368;6.782;2024-02-21T08:07:43;6.60;;;3.03;;
9256;SDS011;4665;51.368;6.782;2024-02-21T08:10:09;4.63;;;3.00;;
9256;SDS011;4665;51.368;6.782;2024-02-21T08:12:34;4.53;;;3.00;;
9256;SDS011;4665;51.368;6.782;2024-02-21T08:21:14;4.93;;;3.90;;
9256;SDS011;4665;51.368;6.782;2024-02-21T08:23:39;8.17;;;4.07;;
9256;SDS011;4665;51.368;6.782;2024-02-21T08:26:18;6.77;;;3.30;;
9256;SDS011;4665;51.368;6.782;2024-02-21T08:28:44;7.00;;;4.00;;
9256;SDS011;4665;51.368;6.782;2024-02-21T08:31:09;5.27;;;3.40;;
9256;SDS011;4665;51.368;6.782;2024-02-21T08:36:27;3.63;;;2.90;;
9256;SDS011;4665;51.368;6.782;2024-02-21T08:38:52;5.50;;;3.37;;
9256;SDS011;4665;51.368;6.782;2024-02-21T08:41:18;5.77;;;3.20;;
9256;SDS011;4665;51.368;6.782;2024-02-21T08:43:43;8.53;;;4.00;;
9256;SDS011;4665;51.368;6.782;2024-02-21T08:46:21;5.83;;;3.13;;
9256;SDS011;4665;51.368;6.782;2024-02-21T08:48:46;5.50;;;3.27;;
9256;SDS011;4665;51.368;6.782;2024-02-21T08:51:17;6.47;;;4.03;;
9256;SDS011;4665;51.368;6.782;2024-02-21T08:53:43;6.57;;;2.90;;
9256;SDS011;4665;51.368;6.782;2024-02-21T08:56:17;8.17;;;3.20;;
9256;SDS011;4665;51.368;6.782;2024-02-21T08:58:43;7.87;;;3.43;;
9256;SDS011;4665;51.368;6.782;2024-02-21T09:01:08;5.90;;;3.57;;
9256;SDS011;4665;51.368;6.782;2024-02-21T09:03:48;6.17;;;3.40;;
9256;SDS011;4665;51.368;6.782;2024-02-21T09:08:52;5.40;;;2.63;;
9256;SDS011;4665;51.368;6.782;2024-02-21T09:11:18;4.43;;;3.03;;
9256;SDS011;4665;51.368;6.782;2024-02-21T09:16:38;5.43;;;3.20;;
9256;SDS011;4665;51.368;6.782;2024-02-21T09:25:13;3.37;;;2.77;;
9256;SDS011;4665;51.368;6.782;2024-02-21T09:27:39;3.63;;;2.50;;
9256;SDS011;4665;51.368;6.782;2024-02-21T09:32:58;5.20;;;2.70;;
9256;SDS011;4665;51.368;6.782;2024-02-21T09:35:25;3.93;;;3.20;;
9256;SDS011;4665;51.368;6.782;2024-02-21T09:37:52;4.30;;;2.50;;
9256;SDS011;4665;51.368;6.782;2024-02-21T09:40:18;4.93;;;2.60;;
9256;SDS011;4665;51.368;6.782;2024-02-21T09:42:44;3.97;;;2.40;;
9256;SDS011;4665;51.368;6.782;2024-02-21T09:50:07;5.17;;;2.67;;
9256;SDS011;4665;51.368;6.782;2024-02-21T09:52:33;3.23;;;2.37;;
9256;SDS011;4665;51.368;6.782;2024-02-21T09:57:54;5.40;;;2.60;;
9256;SDS011;4665;51.368;6.782;2024-02-21T10:00:21;4.63;;;3.00;;
9256;SDS011;4665;51.368;6.782;2024-02-21T10:06:08;5.00;;;2.50;;
9256;SDS011;4665;51.368;6.782;2024-02-21T10:08:33;4.47;;;2.60;;
9256;SDS011;4665;51.368;6.782;2024-02-21T10:10:58;3.70;;;2.10;;
9256;SDS011;4665;51.368;6.782;2024-02-21T10:13:26;3.23;;;2.47;;
9256;SDS011;4665;51.368;6.782;2024-02-21T10:18:27;6.03;;;2.30;;
9256;SDS011;4665;51.368;6.782;2024-02-21T10:21:05;5.53;;;2.57;;
9256;SDS011;4665;51.368;6.782;2024-02-21T10:23:41;3.57;;;2.30;;
9256;SDS011;4665;51.368;6.782;2024-02-21T10:26:07;3.03;;;2.23;;
9256;SDS011;4665;51.368;6.782;2024-02-21T10:28:33;4.17;;;2.40;;
9256;SDS011;4665;51.368;6.782;2024-02-21T10:30:58;3.57;;;2.23;;
9256;SDS011;4665;51.368;6.782;2024-02-21T10:33:24;3.97;;;2.30;;
9256;SDS011;4665;51.368;6.782;2024-02-21T10:38:53;2.20;;;2.00;;
9256;SDS011;4665;51.368;6.782;2024-02-21T10:43:54;4.27;;;2.43;;
9256;SDS011;4665;51.368;6.782;2024-02-21T10:46:20;4.17;;;2.20;;
9256;SDS011;4665;51.368;6.782;2024-02-21T10:49:04;3.97;;;2.67;;
9256;SDS011;4665;51.368;6.782;2024-02-21T10:51:33;6.03;;;2.20;;
9256;SDS011;4665;51.368;6.782;2024-02-21T11:00:04;4.77;;;2.40;;
9256;SDS011;4665;51.368;6.782;2024-02-21T11:08:28;4.30;;;2.17;;
9256;SDS011;4665;51.368;6.782;2024-02-21T11:10:57;2.93;;;2.13;;
9256;SDS011;4665;51.368;6.782;2024-02-21T11:13:37;3.67;;;2.30;;
9256;SDS011;4665;51.368;6.782;2024-02-21T11:16:21;2.90;;;2.47;;
9256;SDS011;4665;51.368;6.782;2024-02-21T11:18:48;2.50;;;2.30;;
9256;SDS011;4665;51.368;6.782;2024-02-21T11:21:14;4.23;;;2.23;;
9256;SDS011;4665;51.368;6.782;2024-02-21T11:23:39;3.63;;;2.63;;
9256;SDS011;4665;51.368;6.782;2024-02-21T11:29:15;3.70;;;2.40;;
9256;SDS011;4665;51.368;6.782;2024-02-21T11:31:47;2.57;;;2.37;;
9256;SDS011;4665;51.368;6.782;2024-02-21T11:34:13;4.93;;;2.40;;
9256;SDS011;4665;51.368;6.782;2024-02-21T11:36:48;4.67;;;2.53;;
9256;SDS011;4665;51.368;6.782;2024-02-21T11:42:17;4.60;;;2.50;;
9256;SDS011;4665;51.368;6.782;2024-02-21T11:44:55;4.40;;;2.47;;
9256;SDS011;4665;51.368;6.782;2024-02-21T11:47:35;3.17;;;2.23;;
9256;SDS011;4665;51.368;6.782;2024-02-21T11:50:21;4.30;;;2.50;;
9256;SDS011;4665;51.368;6.782;2024-02-21T11:52:52;5.93;;;2.83;;
9256;SDS011;4665;51.368;6.782;2024-02-21T11:58:03;3.80;;;2.20;;
9256;SDS011;4665;51.368;6.782;2024-02-21T12:00:48;5.90;;;2.63;;
9256;SDS011;4665;51.368;6.782;2024-02-21T12:03:13;4.93;;;2.33;;
9256;SDS011;4665;51.368;6.782;2024-02-21T12:11:56;7.73;;;3.03;;
9256;SDS011;4665;51.368;6.782;2024-02-21T12:14:22;4.90;;;2.60;;
9256;SDS011;4665;51.368;6.782;2024-02-21T12:16:50;5.30;;;2.20;;
9256;SDS011;4665;51.368;6.782;2024-02-21T12:22:08;7.73;;;3.07;;
9256;SDS011;4665;51.368;6.782;2024-02-21T12:33:52;4.80;;;2.43;;
9256;SDS011;4665;51.368;6.782;2024-02-21T12:36:18;3.20;;;2.20;;
9256;SDS011;4665;51.368;6.782;2024-02-21T12:41:30;6.07;;;2.43;;
9256;SDS011;4665;51.368;6.782;2024-02-21T12:44:00;4.43;;;2.37;;
9256;SDS011;4665;51.368;6.782;2024-02-21T12:46:25;3.77;;;2.60;;
9256;SDS011;4665;51.368;6.782;2024-02-21T12:48:57;3.20;;;2.43;;
9256;SDS011;4665;51.368;6.782;2024-02-21T12:51:22;6.30;;;2.53;;
9256;SDS011;4665;51.368;6.782;2024-02-21T12:59:36;2.10;;;1.87;;
9256;SDS011;4665;51.368;6.782;2024-02-21T13:04:56;2.33;;;2.10;;
9256;SDS011;4665;51.368;6.782;2024-02-21T13:10:27;2.60;;;1.77;;
9256;SDS011;4665;51.368;6.782;2024-02-21T13:12:52;3.20;;;2.20;;
9256;SDS011;4665;51.368;6.782;2024-02-21T13:15:23;2.97;;;2.00;;
9256;SDS011;4665;51.368;6.782;2024-02-21T13:23:41;2.37;;;2.00;;
9256;SDS011;4665;51.368;6.782;2024-02-21T13:28:53;3.90;;;2.57;;
9256;SDS011;4665;51.368;6.782;2024-02-21T13:31:27;6.17;;;2.30;;
9256;SDS011;4665;51.368;6.782;2024-02-21T13:33:52;3.17;;;2.17;;
9256;SDS011;4665;51.368;6.782;2024-02-21T13:39:02;4.33;;;2.30;;
9256;SDS011;4665;51.368;6.782;2024-02-21T13:41:30;5.07;;;2.37;;
9256;SDS011;4665;51.368;6.782;2024-02-21T13:46:50;7.50;;;2.13;;
9256;SDS011;4665;51.368;6.782;2024-02-21T13:52:31;4.43;;;2.43;;
9256;SDS011;4665;51.368;6.782;2024-02-21T13:54:56;3.53;;;2.70;;
9256;SDS011;4665;51.368;6.782;2024-02-21T13:57:23;6.37;;;2.47;;
9256;SDS011;4665;51.368;6.782;2024-02-21T13:59:48;4.67;;;2.27;;
9256;SDS011;4665;51.368;6.782;2024-02-21T14:02:13;5.27;;;2.30;;
9256;SDS011;4665;51.368;6.782;2024-02-21T14:04:39;3.53;;;2.40;;
9256;SDS011;4665;51.368;6.782;2024-02-21T14:07:04;3.57;;;2.70;;
9256;SDS011;4665;51.368;6.782;2024-02-21T14:09:41;4.97;;;2.30;;
9256;SDS011;4665;51.368;6.782;2024-02-21T14:14:59;4.73;;;2.07;;
9256;SDS011;4665;51.368;6.782;2024-02-21T14:20:29;3.40;;;2.60;;
9256;SDS011;4665;51.368;6.782;2024-02-21T14:22:55;2.63;;;2.20;;
9256;SDS011;4665;51.368;6.782;2024-02-21T14:28:05;5.87;;;2.50;;
9256;SDS011;4665;51.368;6.782;2024-02-21T14:36:36;4.87;;;2.70;;
9256;SDS011;4665;51.368;6.782;2024-02-21T14:42:04;3.23;;;2.27;;
9256;SDS011;4665;51.368;6.782;2024-02-21T14:44:29;3.03;;;2.23;;
9256;SDS011;4665;51.368;6.782;2024-02-21T14:49:39;6.53;;;2.40;;
9256;SDS011;4665;51.368;6.782;2024-02-21T14:52:06;3.57;;;2.40;;
9256;SDS011;4665;51.368;6.782;2024-02-21T14:54:31;3.50;;;2.30;;
9256;SDS011;4665;51.368;6.782;2024-02-21T14:59:42;4.67;;;2.60;;
9256;SDS011;4665;51.368;6.782;2024-02-21T15:02:17;5.87;;;2.60;;
9256;SDS011;4665;51.368;6.782;2024-02-21T15:04:55;6.10;;;2.40;;
9256;SDS011;4665;51.368;6.782;2024-02-21T15:07:20;3.43;;;2.07;;
9256;SDS011;4665;51.368;6.782;2024-02-21T15:09:50;3.67;;;2.03;;
9256;SDS011;4665;51.368;6.782;2024-02-21T15:12:15;8.00;;;2.30;;
9256;SDS011;4665;51.368;6.782;2024-02-21T15:17:25;6.03;;;2.57;;
9256;SDS011;4665;51.368;6.782;2024-02-21T15:20:06;5.60;;;2.57;;
9256;SDS011;4665;51.368;6.782;2024-02-21T15:22:36;4.47;;;2.40;;
9256;SDS011;4665;51.368;6.782;2024-02-21T15:25:02;5.77;;;2.00;;
9256;SDS011;4665;51.368;6.782;2024-02-21T15:27:30;4.53;;;1.90;;
9256;SDS011;4665;51.368;6.782;2024-02-21T15:29:55;4.87;;;2.33;;
9256;SDS011;4665;51.368;6.782;2024-02-21T15:32:22;4.60;;;2.30;;
9256;SDS011;4665;51.368;6.782;2024-02-21T15:37:33;6.00;;;2.13;;
9256;SDS011;4665;51.368;6.782;2024-02-21T15:42:48;6.57;;;1.97;;
9256;SDS011;4665;51.368;6.782;2024-02-21T15:48:00;4.23;;;2.77;;
9256;SDS011;4665;51.368;6.782;2024-02-21T15:53:19;3.80;;;1.90;;
9256;SDS011;4665;51.368;6.782;2024-02-21T15:58:29;5.30;;;2.33;;
9256;SDS011;4665;51.368;6.782;2024-02-21T16:06:28;5.17;;;2.00;;
9256;SDS011;4665;51.368;6.782;2024-02-21T16:08:59;2.57;;;2.00;;
9256;SDS011;4665;51.368;6.782;2024-02-21T16:11:24;4.63;;;2.07;;
9256;SDS011;4665;51.368;6.782;2024-02-21T16:16:36;4.70;;;2.50;;
9256;SDS011;4665;51.368;6.782;2024-02-21T16:19:06;6.23;;;2.30;;
9256;SDS011;4665;51.368;6.782;2024-02-21T16:21:31;3.60;;;2.03;;
9256;SDS011;4665;51.368;6.782;2024-02-21T16:26:42;2.90;;;1.80;;
9256;SDS011;4665;51.368;6.782;2024-02-21T16:29:23;2.77;;;1.87;;
9256;SDS011;4665;51.368;6.782;2024-02-21T16:31:49;2.80;;;1.70;;
9256;SDS011;4665;51.368;6.782;2024-02-21T16:34:16;1.80;;;1.53;;
9256;SDS011;4665;51.368;6.782;2024-02-21T16:36:41;2.17;;;1.73;;
9256;SDS011;4665;51.368;6.782;2024-02-21T16:39:11;3.10;;;1.70;;
9256;SDS011;4665;51.368;6.782;2024-02-21T16:41:37;1.67;;;1.53;;
9256;SDS011;4665;51.368;6.782;2024-02-21T16:44:03;3.90;;;1.87;;
9256;SDS011;4665;51.368;6.782;2024-02-21T16:46:28;2.60;;;1.97;;
9256;SDS011;4665;51.368;6.782;2024-02-21T16:48:54;3.23;;;2.10;;
9256;SDS011;4665;51.368;6.782;2024-02-21T16:51:19;3.60;;;1.93;;
9256;SDS011;4665;51.368;6.782;2024-02-21T17:02:40;6.27;;;1.70;;
9256;SDS011;4665;51.368;6.782;2024-02-21T17:07:44;2.17;;;1.93;;
9256;SDS011;4665;51.368;6.782;2024-02-21T17:12:39;3.33;;;2.20;;
9256;SDS011;4665;51.368;6.782;2024-02-21T17:15:14;2.40;;;1.67;;
9256;SDS011;4665;51.368;6.782;2024-02-21T17:17:40;2.40;;;2.13;;
9256;SDS011;4665;51.368;6.782;2024-02-21T17:23:04;3.40;;;1.93;;
9256;SDS011;4665;51.368;6.782;2024-02-21T17:27:59;3.70;;;2.20;;
9256;SDS011;4665;51.368;6.782;2024-02-21T17:33:46;2.97;;;2.20;;
9256;SDS011;4665;51.368;6.782;2024-02-21T17:36:11;3.33;;;2.30;;
9256;SDS011;4665;51.368;6.782;2024-02-21T17:38:37;4.53;;;2.07;;
9256;SDS011;4665;51.368;6.782;2024-02-21T17:41:02;5.40;;;2.27;;
9256;SDS011;4665;51.368;6.782;2024-02-21T17:46:30;2.70;;;2.23;;
9256;SDS011;4665;51.368;6.782;2024-02-21T17:49:14;2.97;;;2.10;;
9256;SDS011;4665;51.368;6.782;2024-02-21T17:51:44;6.07;;;2.10;;
9256;SDS011;4665;51.368;6.782;2024-02-21T17:54:15;3.30;;;1.90;;
9256;SDS011;4665;51.368;6.782;2024-02-21T17:56:41;3.23;;;2.17;;
9256;SDS011;4665;51.368;6.782;2024-02-21T17:59:23;2.23;;;1.90;;
9256;SDS011;4665;51.368;6.782;2024-02-21T18:01:48;4.40;;;1.83;;
9256;SDS011;4665;51.368;6.782;2024-02-21T18:04:13;5.13;;;2.00;;
9256;SDS011;4665;51.368;6.782;2024-02-21T18:06:49;2.40;;;2.00;;
9256;SDS011;4665;51.368;6.782;2024-02-21T18:09:14;3.33;;;1.93;;
9256;SDS011;4665;51.368;6.782;2024-02-21T18:14:43;4.33;;;2.13;;
9256;SDS011;4665;51.368;6.782;2024-02-21T18:17:08;2.03;;;1.80;;
9256;SDS011;4665;51.368;6.782;2024-02-21T18:22:36;2.43;;;1.80;;
9256;SDS011;4665;51.368;6.782;2024-02-21T18:25:02;9.30;;;2.27;;
9256;SDS011;4665;51.368;6.782;2024-02-21T18:27:29;6.67;;;2.53;;
9256;SDS011;4665;51.368;6.782;2024-02-21T18:29:55;3.67;;;2.20;;
9256;SDS011;4665;51.368;6.782;2024-02-21T18:34:57;4.10;;;2.47;;
9256;SDS011;4665;51.368;6.782;2024-02-21T18:37:40;4.50;;;2.60;;
9256;SDS011;4665;51.368;6.782;2024-02-21T18:40:06;3.93;;;2.80;;
9256;SDS011;4665;51.368;6.782;2024-02-21T18:42:50;2.83;;;2.50;;
9256;SDS011;4665;51.368;6.782;2024-02-21T18:45:15;3.47;;;2.70;;
9256;SDS011;4665;51.368;6.782;2024-02-21T18:50:16;3.80;;;2.80;;
9256;SDS011;4665;51.368;6.782;2024-02-21T18:52:52;3.53;;;2.57;;
9256;SDS011;4665;51.368;6.782;2024-02-21T18:55:19;3.87;;;2.27;;
9256;SDS011;4665;51.368;6.782;2024-02-21T18:57:47;4.03;;;2.93;;
9256;SDS011;4665;51.368;6.782;2024-02-21T19:00:13;2.90;;;2.50;;
9256;SDS011;4665;51.368;6.782;2024-02-21T19:05:47;3.90;;;2.43;;
9256;SDS011;4665;51.368;6.782;2024-02-21T19:08:19;6.20;;;3.00;;
9256;SDS011;4665;51.368;6.782;2024-02-21T19:10:44;5.10;;;2.90;;
9256;SDS011;4665;51.368;6.782;2024-02-21T19:13:10;5.90;;;3.00;;
9256;SDS011;4665;51.368;6.782;2024-02-21T19:15:36;3.93;;;2.50;;
9256;SDS011;4665;51.368;6.782;2024-02-21T19:18:02;6.13;;;3.17;;
9256;SDS011;4665;51.368;6.782;2024-02-21T19:23:33;4.27;;;3.10;;
9256;SDS011;4665;51.368;6.782;2024-02-21T19:25:58;3.37;;;2.90;;
9256;SDS011;4665;51.368;6.782;2024-02-21T19:31:10;3.50;;;2.77;;
9256;SDS011;4665;51.368;6.782;2024-02-21T19:36:06;5.17;;;2.80;;
9256;SDS011;4665;51.368;6.782;2024-02-21T19:41:38;4.20;;;2.87;;
9256;SDS011;4665;51.368;6.782;2024-02-21T19:44:03;3.53;;;2.90;;
9256;SDS011;4665;51.368;6.782;2024-02-21T19:46:36;5.50;;;2.73;;
9256;SDS011;4665;51.368;6.782;2024-02-21T19:49:03;4.87;;;2.83;;
9256;SDS011;4665;51.368;6.782;2024-02-21T19:54:13;4.47;;;2.93;;
9256;SDS011;4665;51.368;6.782;2024-02-21T19:56:38;6.30;;;3.20;;
9256;SDS011;4665;51.368;6.782;2024-02-21T19:59:04;3.47;;;2.57;;
9256;SDS011;4665;51.368;6.782;2024-02-21T20:04:26;4.70;;;3.07;;
9256;SDS011;4665;51.368;6.782;2024-02-21T20:12:55;4.20;;;2.53;;
9256;SDS011;4665;51.368;6.782;2024-02-21T20:15:22;4.37;;;3.10;;
9256;SDS011;4665;51.368;6.782;2024-02-21T20:17:57;6.47;;;3.17;;
9256;SDS011;4665;51.368;6.782;2024-02-21T20:20:24;5.03;;;3.13;;
9256;SDS011;4665;51.368;6.782;2024-02-21T20:22:51;5.33;;;3.30;;
9256;SDS011;4665;51.368;6.782;2024-02-21T20:25:17;4.00;;;2.47;;
9256;SDS011;4665;51.368;6.782;2024-02-21T20:27:50;3.10;;;2.63;;
9256;SDS011;4665;51.368;6.782;2024-02-21T20:30:15;4.73;;;3.17;;
9256;SDS011;4665;51.368;6.782;2024-02-21T20:32:41;4.07;;;3.40;;
9256;SDS011;4665;51.368;6.782;2024-02-21T20:38:15;3.20;;;2.90;;
9256;SDS011;4665;51.368;6.782;2024-02-21T20:40:41;3.83;;;3.17;;
9256;SDS011;4665;51.368;6.782;2024-02-21T20:45:39;4.97;;;3.30;;
9256;SDS011;4665;51.368;6.782;2024-02-21T20:48:12;3.67;;;2.90;;
9256;SDS011;4665;51.368;6.782;2024-02-21T20:50:37;3.40;;;3.10;;
9256;SDS011;4665;51.368;6.782;2024-02-21T20:53:21;5.13;;;3.53;;
9256;SDS011;4665;51.368;6.782;2024-02-21T20:55:48;3.43;;;2.93;;
9256;SDS011;4665;51.368;6.782;2024-02-21T21:00:46;3.27;;;2.97;;
9256;SDS011;4665;51.368;6.782;2024-02-21T21:03:13;4.43;;;3.10;;
9256;SDS011;4665;51.368;6.782;2024-02-21T21:05:38;3.63;;;3.33;;
9256;SDS011;4665;51.368;6.782;2024-02-21T21:08:04;3.10;;;2.77;;
9256;SDS011;4665;51.368;6.782;2024-02-21T21:10:30;5.23;;;3.27;;
9256;SDS011;4665;51.368;6.782;2024-02-21T21:12:57;4.20;;;2.60;;
9256;SDS011;4665;51.368;6.782;2024-02-21T21:15:23;3.40;;;2.47;;